createdAt,value
2022-09-29T00:00:49.763Z,10.21
2022-09-29T00:03:16.592Z,10.28
2022-09-29T00:05:52.479Z,10.20
2022-09-29T00:08:20.698Z,10.30
2022-09-29T00:10:47.684Z,10.23
2022-09-29T00:13:15.044Z,10.35
2022-09-29T00:15:42.009Z,10.49
2022-09-29T00:18:14.041Z,10.44
2022-09-29T00:20:41.476Z,10.50
2022-09-29T00:23:08.064Z,10.57
2022-09-29T00:25:35.090Z,10.62
2022-09-29T00:28:01.962Z,10.62
2022-09-29T00:30:28.571Z,10.57
2022-09-29T00:32:55.163Z,10.68
2022-09-29T00:35:21.755Z,10.52
2022-09-29T00:37:48.380Z,10.48
2022-09-29T00:40:15.007Z,10.48
2022-09-29T00:42:41.565Z,10.45
2022-09-29T00:45:21.196Z,10.63
2022-09-29T00:48:06.599Z,10.58
2022-09-29T00:50:33.136Z,10.59
2022-09-29T00:53:02.827Z,10.46
2022-09-29T00:55:36.907Z,10.57
2022-09-29T00:58:09.963Z,10.55
2022-09-29T01:00:37.115Z,10.58
2022-09-29T01:03:16.399Z,10.53
2022-09-29T01:05:49.279Z,10.34
2022-09-29T01:08:30.907Z,10.47
2022-09-29T01:10:59.760Z,10.28
2022-09-29T01:13:26.487Z,10.15
2022-09-29T01:15:53.117Z,10.16
2022-09-29T01:18:19.835Z,10.03
2022-09-29T01:21:15.922Z,9.95
2022-09-29T01:24:13.000Z,10.19
2022-09-29T01:27:19.563Z,10.07
2022-09-29T01:30:03.373Z,10.03
2022-09-29T01:32:29.883Z,10.13
2022-09-29T01:35:18.093Z,10.07
2022-09-29T01:38:16.883Z,10.27
2022-09-29T01:41:03.394Z,10.22
2022-09-29T01:43:49.826Z,10.05
2022-09-29T01:46:27.786Z,9.97
2022-09-29T01:48:57.060Z,9.82
2022-09-29T01:51:35.687Z,9.85
2022-09-29T01:54:09.956Z,9.99
2022-09-29T01:56:43.631Z,10.02
2022-09-29T01:59:24.473Z,10.11
2022-09-29T02:01:57.761Z,10.12
2022-09-29T02:04:34.567Z,10.26
2022-09-29T02:07:08.347Z,10.27
2022-09-29T02:09:41.723Z,10.24
2022-09-29T02:12:13.601Z,10.09
2022-09-29T02:14:44.652Z,10.19
2022-09-29T02:17:25.134Z,10.30
2022-09-29T02:19:52.896Z,10.23
2022-09-29T02:22:19.958Z,10.17
2022-09-29T02:24:46.799Z,10.17
2022-09-29T02:27:13.699Z,10.05
2022-09-29T02:29:40.886Z,9.88
2022-09-29T02:32:10.221Z,9.83
2022-09-29T02:34:42.222Z,9.81
2022-09-29T02:37:23.188Z,9.77
2022-09-29T02:40:14.185Z,9.95
2022-09-29T02:43:04.030Z,10.04
2022-09-29T02:45:37.843Z,10.14
2022-09-29T02:48:39.892Z,10.16
2022-09-29T02:51:21.544Z,9.98
2022-09-29T02:54:03.119Z,9.96
2022-09-29T02:56:48.061Z,9.77
2022-09-29T02:59:27.530Z,9.70
2022-09-29T03:01:56.483Z,9.73
2022-09-29T03:04:26.168Z,9.87
2022-09-29T03:06:53.832Z,9.78
2022-09-29T03:09:21.023Z,9.86
2022-09-29T03:11:47.611Z,9.90
2022-09-29T03:14:14.259Z,9.89
2022-09-29T03:16:40.948Z,9.82
2022-09-29T03:19:07.827Z,9.74
2022-09-29T03:21:35.588Z,9.49
2022-09-29T03:24:02.303Z,9.46
2022-09-29T03:26:30.258Z,9.47
2022-09-29T03:28:56.919Z,9.14
2022-09-29T03:31:23.594Z,9.04
2022-09-29T03:33:50.375Z,9.20
2022-09-29T03:36:16.967Z,9.16
2022-09-29T03:38:45.618Z,9.03
2022-09-29T03:41:12.384Z,9.13
2022-09-29T03:43:39.014Z,9.13
2022-09-29T03:46:06.083Z,9.19
2022-09-29T03:48:35.171Z,9.25
2022-09-29T03:51:01.863Z,9.32
2022-09-29T03:53:28.526Z,9.25
2022-09-29T03:55:55.104Z,9.27
2022-09-29T03:58:21.693Z,9.35
2022-09-29T04:00:49.934Z,9.31
2022-09-29T04:03:16.940Z,9.28
2022-09-29T04:05:46.108Z,9.32
2022-09-29T04:08:13.142Z,9.22
2022-09-29T04:10:40.974Z,9.11
2022-09-29T04:13:08.264Z,9.15
2022-09-29T04:15:35.506Z,9.04
2022-09-29T04:18:02.115Z,9.05
2022-09-29T04:20:29.059Z,9.14
2022-09-29T04:22:55.735Z,9.08
2022-09-29T04:25:22.323Z,8.97
2022-09-29T04:27:48.868Z,8.72
2022-09-29T04:30:16.175Z,8.73
2022-09-29T04:32:43.040Z,8.62
2022-09-29T04:35:09.703Z,8.23
2022-09-29T04:37:36.715Z,8.23
2022-09-29T04:40:05.119Z,8.24
2022-09-29T04:42:31.786Z,8.27
2022-09-29T04:44:58.430Z,8.43
2022-09-29T04:47:25.194Z,8.49
2022-09-29T04:49:51.783Z,8.51
2022-09-29T04:52:18.430Z,8.49
2022-09-29T04:54:45.059Z,8.53
2022-09-29T04:57:11.815Z,8.40
2022-09-29T04:59:38.367Z,8.17
2022-09-29T05:02:05.037Z,8.47
2022-09-29T05:04:31.691Z,8.59
2022-09-29T05:06:58.293Z,8.44
2022-09-29T05:09:25.920Z,8.61
2022-09-29T05:11:53.666Z,8.58
2022-09-29T05:14:20.244Z,8.33
2022-09-29T05:16:46.869Z,8.42
2022-09-29T05:19:13.533Z,8.57
2022-09-29T05:21:40.107Z,8.49
2022-09-29T05:24:06.849Z,8.25
2022-09-29T05:26:33.650Z,8.24
2022-09-29T05:29:00.247Z,8.27
2022-09-29T05:31:26.924Z,8.30
2022-09-29T05:33:56.034Z,8.22
2022-09-29T05:36:23.079Z,8.41
2022-09-29T05:38:50.027Z,8.12
2022-09-29T05:41:22.211Z,8.10
2022-09-29T05:43:53.729Z,8.31
2022-09-29T05:46:20.789Z,8.38
2022-09-29T05:48:47.932Z,8.35
2022-09-29T05:51:20.660Z,8.47
2022-09-29T05:53:50.202Z,8.47
2022-09-29T05:56:19.562Z,8.28
2022-09-29T05:58:46.151Z,8.28
2022-09-29T06:01:15.561Z,8.42
2022-09-29T06:03:42.575Z,8.54
2022-09-29T06:06:14.098Z,8.54
2022-09-29T06:08:41.558Z,8.60
2022-09-29T06:11:14.002Z,8.65
2022-09-29T06:13:42.613Z,8.65
2022-09-29T06:16:10.525Z,8.70
2022-09-29T06:18:37.472Z,8.71
2022-09-29T06:21:13.184Z,8.58
2022-09-29T06:23:40.167Z,8.58
2022-09-29T06:26:09.550Z,8.78
2022-09-29T06:28:36.395Z,8.94
2022-09-29T06:31:15.028Z,8.82
2022-09-29T06:33:42.806Z,8.86
2022-09-29T06:36:48.770Z,8.94
2022-09-29T06:39:16.291Z,8.93
2022-09-29T06:41:54.458Z,8.79
2022-09-29T06:44:23.422Z,8.71
2022-09-29T06:46:51.233Z,8.76
2022-09-29T06:49:18.821Z,8.79
2022-09-29T06:51:46.742Z,8.83
2022-09-29T06:54:15.378Z,9.01
2022-09-29T06:56:42.688Z,9.23
2022-09-29T06:59:09.355Z,9.40
2022-09-29T07:01:36.038Z,9.50
2022-09-29T07:04:02.897Z,9.62
2022-09-29T07:06:30.605Z,9.61
2022-09-29T07:08:59.007Z,9.79
2022-09-29T07:11:26.744Z,10.00
2022-09-29T07:13:54.931Z,9.89
2022-09-29T07:16:25.790Z,9.92
2022-09-29T07:18:52.698Z,9.88
2022-09-29T07:21:21.193Z,9.95
2022-09-29T07:23:48.069Z,10.06
2022-09-29T07:26:19.386Z,10.22
2022-09-29T07:28:47.165Z,10.19
2022-09-29T07:31:17.394Z,10.15
2022-09-29T07:33:45.243Z,10.33
2022-09-29T07:36:13.294Z,10.57
2022-09-29T07:38:39.949Z,10.65
2022-09-29T07:41:08.694Z,10.55
2022-09-29T07:43:35.261Z,10.54
2022-09-29T07:46:02.587Z,10.85
2022-09-29T07:48:32.221Z,11.03
2022-09-29T07:51:03.806Z,10.98
2022-09-29T07:53:31.430Z,11.11
2022-09-29T07:56:05.412Z,11.19
2022-09-29T07:58:33.221Z,11.13
2022-09-29T08:01:01.421Z,11.24
2022-09-29T08:03:30.181Z,11.37
2022-09-29T08:05:57.957Z,11.63
2022-09-29T08:08:24.900Z,11.81
2022-09-29T08:10:53.858Z,11.41
2022-09-29T08:13:21.035Z,11.61
2022-09-29T08:15:47.617Z,11.94
2022-09-29T08:18:14.230Z,12.00
2022-09-29T08:20:40.793Z,11.91
2022-09-29T08:23:07.418Z,11.72
2022-09-29T08:25:35.528Z,11.46
2022-09-29T08:28:02.720Z,11.42
2022-09-29T08:30:29.759Z,11.57
2022-09-29T08:32:56.897Z,11.61
2022-09-29T08:35:23.854Z,11.62
2022-09-29T08:37:50.474Z,11.60
2022-09-29T08:40:18.107Z,11.68
2022-09-29T08:43:32.831Z,11.76
2022-09-29T08:46:06.016Z,12.07
2022-09-29T08:48:43.453Z,12.09
2022-09-29T08:51:42.404Z,12.19
2022-09-29T08:54:46.108Z,12.19
2022-09-29T08:57:19.856Z,12.34
2022-09-29T08:59:55.877Z,12.32
2022-09-29T09:02:25.558Z,12.58
2022-09-29T09:05:01.330Z,12.58
2022-09-29T09:07:44.262Z,12.87
2022-09-29T09:10:47.139Z,13.00
2022-09-29T09:13:38.586Z,12.94
2022-09-29T09:16:20.747Z,12.88
2022-09-29T09:19:11.877Z,12.84
2022-09-29T09:21:52.040Z,12.93
2022-09-29T09:24:26.088Z,12.95
2022-09-29T09:26:53.279Z,12.93
2022-09-29T09:29:32.648Z,12.79
2022-09-29T09:32:04.235Z,12.83
2022-09-29T09:35:00.707Z,13.04
2022-09-29T09:37:41.812Z,13.26
2022-09-29T09:40:24.698Z,13.41
2022-09-29T09:43:00.220Z,13.55
2022-09-29T09:45:36.980Z,13.67
2022-09-29T09:48:13.884Z,13.48
2022-09-29T09:50:46.797Z,13.53
2022-09-29T09:53:26.379Z,13.79
2022-09-29T09:56:04.543Z,13.64
2022-09-29T09:58:43.374Z,13.54
2022-09-29T10:01:12.377Z,13.31
2022-09-29T10:03:39.114Z,13.23
2022-09-29T10:06:08.443Z,13.14
2022-09-29T10:08:39.828Z,13.23
2022-09-29T10:11:26.599Z,12.88
2022-09-29T10:14:26.155Z,12.81
2022-09-29T10:17:01.933Z,12.84
2022-09-29T10:19:51.572Z,12.87
2022-09-29T10:24:47.630Z,12.71
2022-09-29T10:27:20.799Z,12.69
2022-09-29T10:29:52.999Z,12.69
2022-09-29T10:32:19.524Z,12.71
2022-09-29T10:34:50.396Z,12.71
2022-09-29T10:37:28.859Z,12.77
2022-09-29T10:40:10.820Z,12.84
2022-09-29T10:42:48.963Z,12.93
2022-09-29T10:45:24.055Z,13.00
2022-09-29T10:47:59.997Z,13.09
2022-09-29T10:50:35.024Z,13.20
2022-09-29T10:53:21.912Z,13.32
2022-09-29T10:55:51.979Z,13.43
2022-09-29T10:58:45.321Z,13.56
2022-09-29T11:01:17.465Z,13.66
2022-09-29T11:03:52.065Z,13.62
2022-09-29T11:06:26.223Z,13.69
2022-09-29T11:09:08.164Z,13.77
2022-09-29T11:11:37.311Z,14.05
2022-09-29T11:14:04.186Z,14.19
2022-09-29T11:16:39.576Z,14.22
2022-09-29T11:19:11.194Z,14.25
2022-09-29T11:21:37.743Z,14.21
2022-09-29T11:24:14.215Z,14.22
2022-09-29T11:26:54.475Z,14.05
2022-09-29T11:29:28.907Z,14.07
2022-09-29T11:32:23.237Z,14.16
2022-09-29T11:35:05.969Z,14.32
2022-09-29T11:37:59.536Z,14.24
2022-09-29T11:40:51.790Z,14.25
2022-09-29T11:43:44.998Z,14.23
2022-09-29T11:46:20.243Z,14.43
2022-09-29T11:49:15.804Z,14.43
2022-09-29T11:52:28.872Z,14.48
2022-09-29T11:55:10.824Z,14.63
2022-09-29T11:57:43.402Z,14.50
2022-09-29T12:00:14.535Z,14.53
2022-09-29T12:03:00.532Z,14.51
2022-09-29T12:05:31.831Z,14.53
2022-09-29T12:08:19.787Z,14.50
2022-09-29T12:10:50.618Z,14.57
2022-09-29T12:13:23.003Z,14.37
2022-09-29T12:16:04.295Z,14.57
2022-09-29T12:18:49.219Z,14.47
2022-09-29T12:21:21.427Z,14.35
2022-09-29T12:23:49.056Z,14.34
2022-09-29T12:26:21.270Z,14.41
2022-09-29T12:28:50.699Z,14.26
2022-09-29T12:31:25.577Z,14.06
2022-09-29T12:34:06.440Z,13.95
2022-09-29T12:36:54.155Z,13.98
2022-09-29T12:39:34.171Z,13.95
2022-09-29T12:42:22.311Z,14.00
2022-09-29T12:45:38.546Z,14.10
2022-09-29T12:48:30.755Z,14.00
2022-09-29T12:51:24.858Z,14.08
2022-09-29T12:54:08.936Z,14.14
2022-09-29T12:56:47.000Z,14.27
2022-09-29T12:59:39.788Z,14.25
2022-09-29T13:02:22.642Z,14.23
2022-09-29T13:05:03.817Z,14.30
2022-09-29T13:07:55.172Z,14.29
2022-09-29T13:10:40.403Z,14.41
2022-09-29T13:13:22.959Z,14.38
2022-09-29T13:16:21.428Z,14.45
2022-09-29T13:19:14.858Z,14.40
2022-09-29T13:22:24.019Z,14.44
2022-09-29T13:25:17.103Z,14.51
2022-09-29T13:27:46.881Z,14.49
2022-09-29T13:30:29.124Z,14.50
2022-09-29T13:33:13.942Z,14.37
2022-09-29T13:35:43.270Z,14.39
2022-09-29T13:38:18.110Z,14.38
2022-09-29T13:41:12.332Z,14.10
2022-09-29T13:43:59.143Z,13.98
2022-09-29T13:46:31.914Z,13.94
2022-09-29T13:49:15.368Z,14.11
2022-09-29T13:51:45.455Z,14.23
2022-09-29T13:54:25.556Z,14.06
2022-09-29T13:57:12.369Z,14.13
2022-09-29T14:00:02.462Z,13.82
2022-09-29T14:02:49.479Z,14.03
2022-09-29T14:05:25.232Z,14.10
2022-09-29T14:07:56.110Z,14.08
2022-09-29T14:10:58.436Z,13.95
2022-09-29T14:13:29.934Z,14.04
2022-09-29T14:16:02.400Z,14.20
2022-09-29T14:19:07.693Z,14.16
2022-09-29T14:21:59.056Z,14.13
2022-09-29T14:24:38.010Z,14.29
2022-09-29T14:27:29.685Z,14.21
2022-09-29T14:30:15.718Z,14.28
2022-09-29T14:33:02.407Z,14.32
2022-09-29T14:35:44.763Z,14.30
2022-09-29T14:38:18.716Z,14.24
2022-09-29T14:40:57.631Z,14.14
2022-09-29T14:43:34.513Z,14.01
2022-09-29T14:46:57.848Z,14.12
2022-09-29T14:50:01.359Z,14.13
2022-09-29T14:52:27.915Z,13.93
2022-09-29T14:55:00.736Z,13.95
2022-09-29T14:57:34.305Z,14.22
2022-09-29T15:00:04.202Z,14.27
2022-09-29T15:02:34.273Z,14.44
2022-09-29T15:05:11.287Z,14.48
2022-09-29T15:07:41.871Z,14.53
2022-09-29T15:10:22.360Z,14.46
2022-09-29T15:12:50.579Z,14.43
2022-09-29T15:15:31.093Z,14.40
2022-09-29T15:18:14.363Z,14.27
2022-09-29T15:20:55.711Z,14.42
2022-09-29T15:23:44.034Z,14.34
2022-09-29T15:26:14.266Z,14.04
2022-09-29T15:28:42.966Z,14.14
2022-09-29T15:31:19.095Z,14.06
2022-09-29T15:33:47.699Z,14.24
2022-09-29T15:36:38.311Z,14.01
2022-09-29T15:39:30.726Z,13.97
2022-09-29T15:42:03.500Z,13.97
2022-09-29T15:44:33.654Z,13.68
2022-09-29T15:47:00.740Z,13.79
2022-09-29T15:49:30.837Z,13.67
2022-09-29T15:51:59.071Z,13.57
2022-09-29T15:54:34.391Z,13.85
2022-09-29T15:57:20.623Z,13.82
2022-09-29T15:59:54.758Z,13.90
2022-09-29T16:02:36.270Z,13.88
2022-09-29T16:05:12.142Z,13.75
2022-09-29T16:07:48.952Z,13.61
2022-09-29T16:10:19.484Z,13.76
2022-09-29T16:13:00.422Z,13.58
2022-09-29T16:15:37.064Z,13.71
2022-09-29T16:18:09.670Z,13.66
2022-09-29T16:20:36.560Z,13.48
2022-09-29T16:23:22.599Z,13.41
2022-09-29T16:26:07.578Z,13.67
2022-09-29T16:28:36.501Z,13.75
2022-09-29T16:31:17.190Z,13.77
2022-09-29T16:33:46.182Z,13.58
2022-09-29T16:36:20.996Z,13.71
2022-09-29T16:38:50.363Z,13.72
2022-09-29T16:41:28.090Z,13.82
2022-09-29T16:44:16.227Z,13.94
2022-09-29T16:46:48.675Z,13.95
2022-09-29T16:49:28.190Z,13.82
2022-09-29T16:51:57.475Z,13.93
2022-09-29T16:54:40.446Z,14.01
2022-09-29T16:57:30.671Z,13.87
2022-09-29T16:59:59.619Z,13.90
2022-09-29T17:02:27.906Z,13.61
2022-09-29T17:04:56.565Z,13.70
2022-09-29T17:07:25.775Z,13.57
2022-09-29T17:09:56.694Z,13.51
2022-09-29T17:12:24.330Z,13.29
2022-09-29T17:14:51.122Z,13.25
2022-09-29T17:17:26.289Z,13.24
2022-09-29T17:19:56.577Z,13.07
2022-09-29T17:22:39.314Z,13.15
2022-09-29T17:25:07.255Z,13.08
2022-09-29T17:27:52.510Z,13.21
2022-09-29T17:30:23.379Z,13.14
2022-09-29T17:32:52.834Z,13.22
2022-09-29T17:35:22.819Z,12.95
2022-09-29T17:37:50.044Z,12.88
2022-09-29T17:40:18.701Z,12.86
2022-09-29T17:42:47.305Z,12.74
2022-09-29T17:45:19.251Z,12.67
2022-09-29T17:47:47.512Z,12.75
2022-09-29T17:50:21.710Z,12.67
2022-09-29T17:52:48.339Z,12.58
2022-09-29T17:55:14.971Z,12.59
2022-09-29T17:57:42.895Z,12.57
2022-09-29T18:00:15.665Z,12.57
2022-09-29T18:02:42.404Z,12.61
2022-09-29T18:05:10.892Z,12.72
2022-09-29T18:07:37.546Z,12.80
2022-09-29T18:10:16.316Z,12.79
2022-09-29T18:12:42.918Z,12.74
2022-09-29T18:15:10.454Z,12.63
2022-09-29T18:17:37.144Z,12.70
2022-09-29T18:20:18.906Z,12.60
2022-09-29T18:22:48.245Z,12.48
2022-09-29T18:25:17.792Z,12.19
2022-09-29T18:27:48.047Z,12.07
2022-09-29T18:30:34.088Z,12.01
2022-09-29T18:33:00.834Z,12.07
2022-09-29T18:35:33.123Z,12.14
2022-09-29T18:38:01.326Z,12.24
2022-09-29T18:40:29.804Z,12.29
2022-09-29T18:42:58.866Z,12.28
2022-09-29T18:45:28.557Z,12.29
2022-09-29T18:48:00.485Z,12.19
2022-09-29T18:50:42.902Z,12.20
2022-09-29T18:53:10.913Z,12.11
2022-09-29T18:55:37.651Z,12.00
2022-09-29T18:58:04.739Z,11.91
2022-09-29T19:00:34.543Z,11.88
2022-09-29T19:03:02.651Z,11.89
2022-09-29T19:05:31.297Z,11.71
2022-09-29T19:08:00.167Z,11.67
2022-09-29T19:10:32.673Z,11.56
2022-09-29T19:13:04.388Z,11.33
2022-09-29T19:15:35.435Z,11.23
2022-09-29T19:18:03.101Z,11.32
2022-09-29T19:20:30.134Z,11.23
2022-09-29T19:23:02.575Z,11.22
2022-09-29T19:25:35.471Z,11.26
2022-09-29T19:28:05.566Z,11.04
2022-09-29T19:30:35.168Z,11.05
2022-09-29T19:33:01.865Z,11.19
2022-09-29T19:35:29.328Z,11.18
2022-09-29T19:37:59.128Z,11.00
2022-09-29T19:40:29.210Z,10.89
2022-09-29T19:42:58.528Z,10.80
2022-09-29T19:45:25.870Z,10.77
2022-09-29T19:47:57.011Z,10.81
2022-09-29T19:50:43.638Z,10.81
2022-09-29T19:53:10.428Z,10.58
2022-09-29T19:55:40.165Z,10.56
2022-09-29T19:58:07.691Z,10.39
2022-09-29T20:00:35.094Z,10.49
2022-09-29T20:03:02.263Z,10.64
2022-09-29T20:05:28.944Z,10.49
2022-09-29T20:07:55.712Z,10.52
2022-09-29T20:10:22.527Z,10.54
2022-09-29T20:12:49.112Z,10.59
2022-09-29T20:15:15.752Z,10.88
2022-09-29T20:17:44.723Z,10.83
2022-09-29T20:20:11.903Z,10.74
2022-09-29T20:22:39.000Z,10.97
2022-09-29T20:25:08.044Z,10.83
2022-09-29T20:27:36.196Z,10.81
2022-09-29T20:30:05.218Z,10.66
2022-09-29T20:32:33.695Z,10.81
2022-09-29T20:35:00.757Z,10.92
2022-09-29T20:37:29.179Z,11.02
2022-09-29T20:39:55.951Z,10.93
2022-09-29T20:42:23.084Z,10.96
2022-09-29T20:44:55.162Z,10.90
2022-09-29T20:47:25.107Z,10.96
2022-09-29T20:49:55.162Z,10.91
2022-09-29T20:52:23.085Z,10.93
2022-09-29T20:54:49.834Z,10.83
2022-09-29T20:57:16.736Z,10.92
2022-09-29T20:59:43.910Z,10.89
2022-09-29T21:02:12.555Z,10.85
2022-09-29T21:04:39.812Z,10.75
2022-09-29T21:07:26.345Z,10.88
2022-09-29T21:09:53.086Z,10.79
2022-09-29T21:12:19.711Z,10.81
2022-09-29T21:14:46.324Z,10.78
2022-09-29T21:17:12.905Z,10.77
2022-09-29T21:19:39.641Z,10.73
2022-09-29T21:22:06.419Z,10.92
2022-09-29T21:24:33.805Z,10.84
2022-09-29T21:27:00.446Z,10.82
2022-09-29T21:29:27.083Z,10.75
2022-09-29T21:31:53.679Z,10.78
2022-09-29T21:34:21.315Z,10.71
2022-09-29T21:36:48.070Z,10.71
2022-09-29T21:39:14.833Z,10.77
2022-09-29T21:41:43.054Z,10.75
2022-09-29T21:44:24.251Z,11.04
2022-09-29T21:46:51.325Z,10.87
2022-09-29T21:49:19.538Z,10.95
2022-09-29T21:51:48.616Z,10.96
2022-09-29T21:54:18.059Z,11.06
2022-09-29T21:56:46.176Z,11.06
2022-09-29T21:59:15.514Z,11.21
2022-09-29T22:01:42.744Z,11.43
2022-09-29T22:04:10.707Z,11.49
2022-09-29T22:06:38.672Z,11.36
2022-09-29T22:09:07.910Z,11.49
2022-09-29T22:11:38.000Z,11.54
2022-09-29T22:14:05.102Z,11.48
2022-09-29T22:16:34.158Z,11.37
2022-09-29T22:19:22.515Z,11.40
2022-09-29T22:21:50.043Z,11.56
2022-09-29T22:24:16.629Z,11.57
2022-09-29T22:26:43.247Z,11.73
2022-09-29T22:29:10.119Z,11.78
2022-09-29T22:31:40.298Z,11.36
2022-09-29T22:34:07.628Z,11.62
2022-09-29T22:36:35.256Z,11.85
2022-09-29T22:39:04.314Z,11.92
2022-09-29T22:41:31.380Z,11.99
2022-09-29T22:43:59.772Z,12.01
2022-09-29T22:46:28.791Z,11.95
2022-09-29T22:48:56.134Z,11.96
2022-09-29T22:51:22.723Z,11.88
2022-09-29T22:53:49.760Z,12.06
2022-09-29T22:56:19.464Z,12.12
2022-09-29T22:58:46.681Z,12.13
2022-09-29T23:01:16.028Z,12.20
2022-09-29T23:03:44.752Z,12.23
2022-09-29T23:06:12.284Z,12.25
2022-09-29T23:08:39.432Z,12.26
2022-09-29T23:11:08.052Z,12.28
2022-09-29T23:13:37.571Z,12.31
2022-09-29T23:16:11.969Z,12.23
2022-09-29T23:18:44.921Z,12.13
2022-09-29T23:21:19.964Z,12.18
2022-09-29T23:23:47.777Z,12.24
2022-09-29T23:26:14.915Z,12.27
2022-09-29T23:28:41.627Z,12.32
2022-09-29T23:31:08.589Z,12.33
2022-09-29T23:33:35.664Z,12.27
2022-09-29T23:36:07.609Z,12.17
2022-09-29T23:38:52.739Z,12.27
2022-09-29T23:41:22.138Z,12.22
2022-09-29T23:43:48.693Z,12.13
2022-09-29T23:46:15.325Z,12.06
2022-09-29T23:48:42.007Z,11.64
2022-09-29T23:51:09.174Z,11.62
2022-09-29T23:53:36.003Z,11.57
2022-09-29T23:56:02.732Z,11.60
2022-09-29T23:58:29.579Z,11.72
